Time;durP1;ratioP1;P1;durP2;ratioP2;P2;SDS_P1;SDS_P2;PMS_P1;PMS_P2;Temp;Humidity;BMP_temperature;BMP_pressure;BME280_temperature;BME280_humidity;BME280_pressure;Samples;Min_cycle;Max_cycle;Signal;HPM_P1;HPM_P2
2024/02/20 00:01:25;;;;;;;8.30;3.80;;;;;;;8.28;100.00;100624.86;183176;1232;59189;-81
2024/02/20 00:05:27;;;;;;;4.00;3.20;;;;;;;8.29;100.00;100625.30;183229;1233;46001;-82
2024/02/20 00:09:28;;;;;;;9.40;3.90;;;;;;;8.33;100.00;100621.52;183092;1236;45996;-82
2024/02/20 00:13:30;;;;;;;6.50;5.20;;;;;;;8.35;100.00;100621.00;182936;1236;45995;-81
2024/02/20 00:17:37;;;;;;;8.10;4.60;;;;;;;8.41;100.00;100619.76;183062;1233;44239;-83
2024/02/20 00:21:41;;;;;;;5.80;5.00;;;;;;;8.45;100.00;100624.25;183108;1236;58053;-83
2024/02/20 00:25:43;;;;;;;5.20;4.60;;;;;;;8.53;100.00;100622.88;183675;1232;46051;-83
2024/02/20 00:29:45;;;;;;;7.10;5.50;;;;;;;8.58;100.00;100627.98;183407;1235;45890;-83
2024/02/20 00:33:47;;;;;;;6.30;4.80;;;;;;;8.66;100.00;100633.34;183004;1232;46136;-84
2024/02/20 00:37:53;;;;;;;18.70;7.00;;;;;;;8.69;100.00;100632.25;182775;1236;46065;-84
2024/02/20 00:41:55;;;;;;;8.70;7.40;;;;;;;8.76;100.00;100631.59;183285;1236;57795;-84
2024/02/20 00:46:00;;;;;;;11.90;7.90;;;;;;;8.79;100.00;100633.65;183438;1232;46031;-83
2024/02/20 00:50:02;;;;;;;8.70;6.50;;;;;;;8.84;100.00;100632.48;183106;1232;45981;-83
2024/02/20 00:54:08;;;;;;;11.00;6.60;;;;;;;8.85;100.00;100630.24;183227;1234;46153;-83
2024/02/20 00:58:10;;;;;;;10.80;7.40;;;;;;;8.91;100.00;100628.47;183198;1234;44616;-83
2024/02/20 01:02:12;;;;;;;14.50;7.60;;;;;;;8.95;100.00;100628.89;182955;1236;58050;-83
2024/02/20 01:06:14;;;;;;;8.80;7.10;;;;;;;8.98;100.00;100625.15;183108;1233;46287;-83
2024/02/20 01:10:19;;;;;;;7.60;6.80;;;;;;;8.99;100.00;100627.84;182632;1232;46100;-84
2024/02/20 01:14:21;;;;;;;6.90;6.10;;;;;;;8.95;100.00;100622.14;183496;1236;46083;-84
2024/02/20 01:18:23;;;;;;;9.40;7.60;;;;;;;8.91;100.00;100620.45;183103;1236;45988;-83
2024/02/20 01:22:28;;;;;;;10.00;7.10;;;;;;;8.93;100.00;100616.10;182898;1234;59304;-83
2024/02/20 01:26:31;;;;;;;11.30;7.00;;;;;;;8.92;100.00;100608.73;183270;1236;45955;-83
2024/02/20 01:30:32;;;;;;;10.60;6.80;;;;;;;8.97;100.00;100611.05;183325;1232;45905;-84
2024/02/20 01:34:37;;;;;;;15.00;8.30;;;;;;;8.92;100.00;100611.06;183081;1234;45957;-84
2024/02/20 01:38:39;;;;;;;11.80;5.80;;;;;;;8.97;100.00;100613.34;182818;1234;46105;-84
2024/02/20 01:42:43;;;;;;;14.00;7.70;;;;;;;8.92;100.00;100610.88;183104;1236;59885;-83
2024/02/20 01:46:45;;;;;;;11.00;7.30;;;;;;;8.93;100.00;100611.11;183680;1232;46665;-83
2024/02/20 01:50:49;;;;;;;12.00;9.50;;;;;;;8.95;100.00;100606.23;183397;1234;46096;-83
2024/02/20 01:55:00;;;;;;;14.50;9.30;;;;;;;8.91;100.00;100605.95;183123;1236;46205;-84
2024/02/20 01:59:04;;;;;;;11.80;7.80;;;;;;;8.90;100.00;100600.00;182903;1234;46140;-84
2024/02/20 02:03:06;;;;;;;12.00;7.50;;;;;;;8.86;100.00;100596.58;183063;1233;59280;-84
2024/02/20 02:07:08;;;;;;;14.00;9.50;;;;;;;8.84;100.00;100592.16;183226;1234;46154;-82
2024/02/20 02:11:10;;;;;;;15.20;9.40;;;;;;;8.85;100.00;100591.52;183366;1232;46061;-82
2024/02/20 02:15:11;;;;;;;11.80;8.20;;;;;;;8.90;100.00;100593.67;183529;1234;46088;-83
2024/02/20 02:19:13;;;;;;;14.40;8.10;;;;;;;8.95;100.00;100588.89;183188;1235;46081;-82
2024/02/20 02:23:18;;;;;;;14.30;10.20;;;;;;;8.99;100.00;100593.39;182998;1235;57946;-83
2024/02/20 02:27:20;;;;;;;16.80;9.90;;;;;;;9.01;100.00;100590.63;183728;1232;46122;-82
2024/02/20 02:31:25;;;;;;;17.80;10.40;;;;;;;9.04;100.00;100586.87;184127;1232;46079;-83
2024/02/20 02:35:30;;;;;;;15.10;7.10;;;;;;;9.08;100.00;100586.96;183026;1234;46093;-83
2024/02/20 02:39:32;;;;;;;17.30;8.10;;;;;;;9.09;100.00;100581.39;183365;1233;46320;-83
2024/02/20 02:43:34;;;;;;;15.40;9.00;;;;;;;9.12;100.00;100580.98;183103;1236;57887;-83
2024/02/20 02:47:35;;;;;;;10.50;7.50;;;;;;;9.16;100.00;100581.77;182788;1237;46104;-82
2024/02/20 02:51:41;;;;;;;20.10;9.70;;;;;;;9.14;100.00;100582.75;183338;1234;46065;-83
2024/02/20 02:55:43;;;;;;;10.00;7.20;;;;;;;9.13;100.00;100588.67;183444;1233;44132;-83
2024/02/20 02:59:47;;;;;;;10.00;8.30;;;;;;;9.12;100.00;100592.82;183051;1235;46093;-83
2024/02/20 03:03:49;;;;;;;9.50;7.20;;;;;;;9.10;100.00;100591.38;182976;1232;58368;-83
2024/02/20 03:08:02;;;;;;;10.20;7.80;;;;;;;9.07;100.00;100588.08;182985;1233;45973;-83
2024/02/20 03:12:04;;;;;;;10.40;6.60;;;;;;;9.05;100.00;100590.90;183531;1235;45970;-83
2024/02/20 03:16:06;;;;;;;7.20;4.90;;;;;;;9.04;100.00;100593.25;182959;1234;46027;-83
2024/02/20 03:20:14;;;;;;;7.90;4.40;;;;;;;9.02;100.00;100588.05;182765;1235;46057;-83
2024/02/20 03:24:16;;;;;;;8.50;6.40;;;;;;;8.99;100.00;100589.13;182822;1236;57783;-83
2024/02/20 03:28:17;;;;;;;10.10;5.90;;;;;;;8.94;100.00;100591.45;183097;1236;45982;-83
2024/02/20 03:32:21;;;;;;;7.80;6.30;;;;;;;8.91;100.00;100590.92;183568;1235;44099;-83
2024/02/20 03:36:22;;;;;;;6.20;5.40;;;;;;;8.89;100.00;100589.67;182865;1233;46136;-82
2024/02/20 03:40:24;;;;;;;9.10;6.60;;;;;;;8.85;100.00;100591.15;183474;1237;46094;-83
2024/02/20 03:44:26;;;;;;;13.70;8.40;;;;;;;8.80;100.00;100592.58;182886;1235;59208;-83
2024/02/20 03:48:29;;;;;;;9.30;7.10;;;;;;;8.77;100.00;100591.58;182839;1233;46049;-81
2024/02/20 03:52:31;;;;;;;10.10;8.00;;;;;;;8.72;100.00;100597.56;182626;1232;46433;-83
2024/02/20 03:56:33;;;;;;;12.60;8.70;;;;;;;8.70;100.00;100593.45;183135;1236;46411;-82
2024/02/20 04:00:35;;;;;;;11.90;6.60;;;;;;;8.66;100.00;100593.02;182936;1232;45105;-84
2024/02/20 04:04:38;;;;;;;11.10;7.80;;;;;;;8.64;100.00;100592.22;183211;1233;59095;-82
2024/02/20 04:08:39;;;;;;;9.40;8.40;;;;;;;8.63;100.00;100590.94;182676;1236;46044;-83
2024/02/20 04:12:44;;;;;;;11.70;8.00;;;;;;;8.64;100.00;100591.73;182929;1236;46085;-83
2024/02/20 04:16:46;;;;;;;12.70;8.50;;;;;;;8.63;100.00;100594.09;183183;1236;45925;-83
2024/02/20 04:20:51;;;;;;;16.10;8.60;;;;;;;8.64;100.00;100595.98;183239;1235;44043;-83
2024/02/20 04:24:52;;;;;;;11.30;8.60;;;;;;;8.65;100.00;100606.13;182991;1234;59158;-83
2024/02/20 04:28:58;;;;;;;15.20;9.70;;;;;;;8.68;100.00;100609.16;183253;1232;46237;-82
2024/02/20 04:33:02;;;;;;;16.70;9.00;;;;;;;8.67;100.00;100610.09;183285;1237;46130;-82
2024/02/20 04:37:07;;;;;;;21.20;9.90;;;;;;;8.71;100.00;100610.52;183768;1232;45962;-83
2024/02/20 04:41:11;;;;;;;12.10;9.10;;;;;;;8.75;100.00;100612.77;183658;1232;45941;-83
2024/02/20 04:45:13;;;;;;;9.80;8.70;;;;;;;8.76;100.00;100611.08;183047;1237;59259;-83
2024/02/20 04:49:17;;;;;;;14.20;9.30;;;;;;;8.77;100.00;100613.52;184475;1234;46194;-77
2024/02/20 04:53:19;;;;;;;10.40;8.10;;;;;;;8.78;100.00;100610.95;184396;1234;46124;-76
2024/02/20 04:57:20;;;;;;;9.80;8.10;;;;;;;8.77;100.00;100610.48;182743;1233;45988;-76
2024/02/20 05:01:25;;;;;;;12.60;8.40;;;;;;;8.77;100.00;100611.39;183297;1234;45859;-78
2024/02/20 05:05:27;;;;;;;10.30;7.20;;;;;;;8.82;100.00;100616.50;182692;1233;59107;-77
2024/02/20 05:09:28;;;;;;;12.40;8.40;;;;;;;8.86;100.00;100619.38;183068;1237;46118;-77
2024/02/20 05:13:30;;;;;;;11.10;9.20;;;;;;;8.92;100.00;100619.52;182161;1235;46201;-78
2024/02/20 05:17:32;;;;;;;19.40;11.50;;;;;;;8.94;100.00;100621.29;182581;1238;45439;-78
2024/02/20 05:21:35;;;;;;;13.90;9.40;;;;;;;9.00;100.00;100624.77;183328;1233;45922;-77
2024/02/20 05:25:41;;;;;;;14.90;10.90;;;;;;;9.04;100.00;100621.88;183807;1234;57119;-77
2024/02/20 05:29:42;;;;;;;16.10;10.70;;;;;;;9.08;100.00;100622.48;183806;1234;45976;-77
2024/02/20 05:33:47;;;;;;;29.00;12.00;;;;;;;9.13;100.00;100630.80;182257;1237;45963;-77
2024/02/20 05:37:49;;;;;;;13.70;11.20;;;;;;;9.13;100.00;100629.55;183695;1237;46161;-77
2024/02/20 05:41:55;;;;;;;13.50;9.60;;;;;;;9.14;100.00;100630.05;182241;1233;45963;-77
2024/02/20 05:45:57;;;;;;;13.70;10.30;;;;;;;9.16;100.00;100630.45;183335;1234;59212;-77
2024/02/20 05:49:59;;;;;;;16.10;10.50;;;;;;;9.19;100.00;100633.42;183533;1234;44783;-77
2024/02/20 05:54:02;;;;;;;15.90;10.80;;;;;;;9.20;100.00;100636.51;182475;1234;46052;-77
2024/02/20 05:58:05;;;;;;;11.10;8.90;;;;;;;9.19;100.00;100641.17;182889;1237;46093;-77
2024/02/20 06:02:09;;;;;;;14.00;11.70;;;;;;;9.21;100.00;100641.89;183193;1234;45938;-77
2024/02/20 06:06:12;;;;;;;12.80;10.50;;;;;;;9.19;100.00;100641.35;183263;1237;58066;-76
2024/02/20 06:10:20;;;;;;;19.00;10.70;;;;;;;9.20;100.00;100646.98;182694;1234;46041;-76
2024/02/20 06:14:22;;;;;;;15.80;10.90;;;;;;;9.15;100.00;100643.23;184751;1233;45944;-77
2024/02/20 06:18:24;;;;;;;13.30;10.70;;;;;;;9.17;100.00;100650.75;183302;1237;45948;-77
2024/02/20 06:22:27;;;;;;;12.20;9.40;;;;;;;9.08;100.00;100653.46;183237;1235;45970;-77
2024/02/20 06:26:30;;;;;;;13.40;9.20;;;;;;;9.02;100.00;100655.80;183114;1235;58198;-77
2024/02/20 06:30:33;;;;;;;17.00;11.80;;;;;;;8.99;100.00;100662.52;183394;1235;46016;-78
2024/02/20 06:34:36;;;;;;;12.60;9.60;;;;;;;8.96;100.00;100669.28;183564;1235;46070;-78
2024/02/20 06:38:38;;;;;;;18.60;9.70;;;;;;;8.97;100.00;100677.02;182257;1237;45996;-81
2024/02/20 06:42:39;;;;;;;17.60;9.70;;;;;;;8.92;100.00;100675.08;182230;1237;44659;-81
2024/02/20 06:46:41;;;;;;;14.70;10.70;;;;;;;8.85;100.00;100682.04;182664;1233;57806;-82
2024/02/20 06:50:43;;;;;;;18.00;10.10;;;;;;;8.80;100.00;100685.40;182236;1235;45981;-81
2024/02/20 06:54:45;;;;;;;14.80;10.80;;;;;;;8.85;100.00;100692.36;182132;1238;45978;-81
2024/02/20 06:58:46;;;;;;;11.70;9.50;;;;;;;8.83;100.00;100697.63;182151;1237;45955;-81
2024/02/20 07:02:49;;;;;;;16.30;10.50;;;;;;;8.82;100.00;100700.70;182960;1234;46088;-81
2024/02/20 07:06:51;;;;;;;11.50;9.70;;;;;;;8.77;100.00;100703.82;183482;1233;59755;-82
2024/02/20 07:11:00;;;;;;;17.60;9.80;;;;;;;8.86;100.00;100700.20;182929;1234;46035;-80
2024/02/20 07:15:03;;;;;;;11.10;9.20;;;;;;;9.00;100.00;100702.27;184086;1233;46013;-81
2024/02/20 07:19:05;;;;;;;17.50;11.00;;;;;;;9.13;100.00;100703.04;182423;1235;46061;-81
2024/02/20 07:23:07;;;;;;;14.90;8.90;;;;;;;9.22;100.00;100708.03;183001;1233;46082;-81
2024/02/20 07:27:08;;;;;;;14.50;9.60;;;;;;;9.33;100.00;100710.48;182409;1237;59159;-80
2024/02/20 07:31:12;;;;;;;14.20;9.50;;;;;;;9.44;100.00;100715.05;183385;1234;44629;-80
2024/02/20 07:35:14;;;;;;;19.10;11.10;;;;;;;9.53;100.00;100722.17;182703;1235;46095;-79
2024/02/20 07:39:16;;;;;;;13.80;10.40;;;;;;;9.56;100.00;100723.52;183231;1235;46077;-79
2024/02/20 07:43:18;;;;;;;11.90;10.40;;;;;;;9.59;100.00;100727.23;182764;1234;46037;-79
2024/02/20 07:47:20;;;;;;;13.90;10.20;;;;;;;9.65;100.00;100726.15;182238;1235;57882;-81
2024/02/20 07:51:23;;;;;;;16.80;12.30;;;;;;;9.71;100.00;100732.42;183312;1233;46071;-80
2024/02/20 07:55:25;;;;;;;11.90;9.40;;;;;;;9.73;100.00;100734.59;183060;1235;45915;-80
2024/02/20 07:59:26;;;;;;;10.80;9.60;;;;;;;9.76;100.00;100737.41;183320;1233;46041;-79
2024/02/20 08:03:28;;;;;;;12.20;9.10;;;;;;;9.82;100.00;100734.29;182403;1238;45980;-80
2024/02/20 08:07:29;;;;;;;13.70;10.90;;;;;;;9.87;100.00;100735.61;182733;1235;59504;-80
2024/02/20 08:11:34;;;;;;;14.40;10.60;;;;;;;9.86;100.00;100735.59;183239;1234;46208;-80
2024/02/20 08:15:35;;;;;;;17.80;10.10;;;;;;;9.93;100.00;100734.63;183062;1236;45883;-80
2024/02/20 08:19:37;;;;;;;11.50;8.50;;;;;;;10.02;100.00;100732.39;182530;1237;46554;-79
2024/02/20 08:23:42;;;;;;;10.20;8.90;;;;;;;10.10;100.00;100725.19;183293;1237;46093;-80
2024/02/20 08:27:43;;;;;;;11.50;6.70;;;;;;;10.12;100.00;100726.32;184633;1235;57779;-81
2024/02/20 08:31:48;;;;;;;12.60;8.60;;;;;;;10.08;100.00;100732.95;183099;1233;45902;-80
2024/02/20 08:35:49;;;;;;;8.90;6.30;;;;;;;10.04;100.00;100732.55;182985;1233;46003;-80
2024/02/20 08:39:51;;;;;;;8.90;6.70;;;;;;;10.02;100.00;100736.11;182293;1236;45996;-81
2024/02/20 08:43:55;;;;;;;11.50;6.00;;;;;;;9.94;100.00;100736.66;183707;1237;46089;-81
2024/02/20 08:47:59;;;;;;;7.60;4.90;;;;;;;10.02;100.00;100735.75;182948;1233;59521;-80
2024/02/20 08:52:01;;;;;;;6.70;5.70;;;;;;;9.99;100.00;100736.84;182906;1233;46029;-81
2024/02/20 08:56:12;;;;;;;10.50;6.70;;;;;;;9.83;100.00;100746.49;182694;1234;46091;-81
2024/02/20 09:00:16;;;;;;;5.10;3.80;;;;;;;9.85;100.00;100740.52;183681;1233;46051;-81
2024/02/20 09:04:22;;;;;;;5.30;3.80;;;;;;;9.81;100.00;100749.45;182632;1233;46074;-81
2024/02/20 09:08:24;;;;;;;7.50;5.30;;;;;;;9.62;100.00;100751.16;182491;1237;59826;-80
2024/02/20 09:12:26;;;;;;;7.00;4.00;;;;;;;9.61;100.00;100750.66;183180;1233;45958;-81
2024/02/20 09:16:27;;;;;;;6.30;3.80;;;;;;;9.65;100.00;100748.81;182730;1238;46091;-81
2024/02/20 09:20:29;;;;;;;3.40;3.10;;;;;;;9.38;100.00;100765.69;182789;1237;46093;-81
2024/02/20 09:24:31;;;;;;;4.30;3.50;;;;;;;9.14;100.00;100762.19;183802;1236;45970;-81
2024/02/20 09:28:36;;;;;;;4.40;3.50;;;;;;;9.18;100.00;100764.20;182574;1235;57990;-80
2024/02/20 09:32:40;;;;;;;5.00;3.30;;;;;;;9.25;100.00;100760.77;183515;1233;46117;-81
2024/02/20 09:36:42;;;;;;;5.90;2.90;;;;;;;9.50;100.00;100757.81;183408;1233;45967;-81
2024/02/20 09:40:48;;;;;;;4.60;4.10;;;;;;;9.72;100.00;100763.39;182574;1233;46080;-81
2024/02/20 09:44:56;;;;;;;5.70;3.30;;;;;;;9.93;100.00;100761.15;183125;1235;45987;-80
2024/02/20 09:48:58;;;;;;;3.70;3.00;;;;;;;10.05;100.00;100757.30;183247;1233;56839;-81
2024/02/20 09:53:00;;;;;;;3.40;3.00;;;;;;;10.10;100.00;100757.11;183324;1238;45981;-78
2024/02/20 09:57:02;;;;;;;2.20;2.00;;;;;;;10.10;100.00;100760.64;182634;1238;46170;-80
2024/02/20 10:01:04;;;;;;;4.20;2.00;;;;;;;10.00;100.00;100759.83;183623;1233;46160;-79
2024/02/20 10:05:10;;;;;;;2.60;1.90;;;;;;;9.88;100.00;100761.69;184200;1233;45977;-81
2024/02/20 10:09:14;;;;;;;3.20;2.10;;;;;;;9.94;100.00;100764.08;183412;1233;59292;-81
2024/02/20 10:13:18;;;;;;;2.40;2.10;;;;;;;9.97;100.00;100766.90;184205;1236;46038;-81
2024/02/20 10:17:22;;;;;;;4.90;3.10;;;;;;;9.81;100.00;100770.52;184316;1235;46089;-81
2024/02/20 10:21:25;;;;;;;2.40;1.90;;;;;;;9.63;100.00;100771.60;183359;1233;46078;-82
2024/02/20 10:25:26;;;;;;;2.20;1.80;;;;;;;9.66;100.00;100779.17;183625;1235;45995;-81
2024/02/20 10:29:30;;;;;;;3.40;1.90;;;;;;;9.49;100.00;100790.83;183072;1237;58232;-81
2024/02/20 10:33:33;;;;;;;2.40;2.20;;;;;;;9.26;100.00;100793.41;182896;1237;46760;-80
2024/02/20 10:37:38;;;;;;;2.70;1.50;;;;;;;9.18;100.00;100795.75;182639;1237;45981;-81
2024/02/20 10:41:39;;;;;;;1.50;1.10;;;;;;;9.01;100.00;100800.43;182990;1235;46549;-80
2024/02/20 10:45:43;;;;;;;4.70;1.00;;;;;;;8.83;100.00;100796.80;183557;1237;46089;-80
2024/02/20 10:49:46;;;;;;;4.50;2.60;;;;;;;8.67;100.00;100807.05;182661;1233;59284;-81
2024/02/20 10:53:50;;;;;;;3.40;1.30;;;;;;;8.56;100.00;100808.79;183372;1236;46074;-80
2024/02/20 10:57:53;;;;;;;1.10;0.80;;;;;;;8.42;100.00;100804.70;183634;1235;46106;-79
2024/02/20 11:01:54;;;;;;;2.40;1.30;;;;;;;8.42;100.00;100806.10;183926;1236;46092;-80
2024/02/20 11:05:56;;;;;;;2.50;1.60;;;;;;;8.48;100.00;100798.89;182458;1234;45328;-81
2024/02/20 11:10:10;;;;;;;1.60;1.20;;;;;;;8.49;100.00;100788.39;182750;1238;60777;-80
2024/02/20 11:14:23;;;;;;;1.80;1.00;;;;;;;8.54;100.00;100787.38;183094;1237;46181;-80
2024/02/20 11:18:30;;;;;;;1.20;1.10;;;;;;;8.69;100.00;100784.98;182759;1238;45999;-81
2024/02/20 11:22:32;;;;;;;2.70;1.40;;;;;;;8.80;100.00;100777.20;182202;1238;46114;-80
2024/02/20 11:26:34;;;;;;;2.10;1.80;;;;;;;8.98;100.00;100770.88;184503;1237;209481;-80
2024/02/20 11:30:37;;;;;;;3.30;1.70;;;;;;;9.20;100.00;100767.48;183920;1237;58730;-80
2024/02/20 11:34:45;;;;;;;2.00;1.80;;;;;;;9.38;100.00;100767.87;183300;1234;46015;-81
2024/02/20 11:39:05;;;;;;;1.30;1.20;;;;;;;9.41;100.00;100761.07;184208;1237;44786;-81
2024/02/20 11:43:08;;;;;;;1.70;1.20;;;;;;;9.33;100.00;100760.38;184100;1234;45967;-81
2024/02/20 11:47:10;;;;;;;3.00;1.50;;;;;;;9.24;100.00;100767.75;184210;1237;46066;-80
2024/02/20 11:51:19;;;;;;;2.40;1.50;;;;;;;9.10;100.00;100770.26;182802;1237;59280;-80
2024/02/20 11:55:20;;;;;;;4.60;2.70;;;;;;;8.84;100.00;100771.80;182953;1234;46103;-80
2024/02/20 11:59:22;;;;;;;5.10;3.60;;;;;;;8.73;100.00;100766.00;183575;1234;45942;-80
2024/02/20 12:03:30;;;;;;;3.70;3.10;;;;;;;8.71;100.00;100764.39;183975;1237;46083;-80
2024/02/20 12:07:32;;;;;;;6.30;4.80;;;;;;;8.72;100.00;100767.85;183429;1235;44029;-80
2024/02/20 12:11:49;;;;;;;5.30;3.30;;;;;;;8.78;100.00;100763.52;182922;1238;59256;-80
2024/02/20 12:15:52;;;;;;;1.80;1.50;;;;;;;8.81;100.00;100761.92;182913;1235;45931;-81
2024/02/20 12:20:08;;;;;;;1.00;0.80;;;;;;;8.83;100.00;100760.40;182564;1235;46020;-80
2024/02/20 12:24:10;;;;;;;1.70;0.50;;;;;;;8.81;100.00;100756.25;183215;1235;45974;-81
2024/02/20 12:28:14;;;;;;;1.40;1.10;;;;;;;8.86;100.00;100756.84;184155;1235;45982;-81
2024/02/20 12:32:15;;;;;;;2.10;1.00;;;;;;;8.87;100.00;100756.59;184029;1237;58006;-81
2024/02/20 12:36:18;;;;;;;1.60;1.30;;;;;;;8.88;100.00;100752.30;183645;1234;46065;-81
2024/02/20 12:40:20;;;;;;;2.20;1.80;;;;;;;8.88;100.00;100752.27;183434;1237;45953;-81
2024/02/20 12:44:24;;;;;;;2.60;1.70;;;;;;;8.96;100.00;100757.01;183219;1234;46060;-81
2024/02/20 12:48:26;;;;;;;2.60;2.40;;;;;;;9.05;100.00;100757.53;183468;1237;44007;-80
2024/02/20 12:52:29;;;;;;;2.30;1.70;;;;;;;9.13;100.00;100761.56;183351;1238;59707;-80
2024/02/20 12:56:30;;;;;;;2.80;1.90;;;;;;;9.05;100.00;100769.05;183317;1235;46061;-81
2024/02/20 13:00:33;;;;;;;3.50;2.70;;;;;;;8.91;100.00;100761.65;183335;1235;46105;-80
2024/02/20 13:04:35;;;;;;;2.70;2.20;;;;;;;8.90;100.00;100758.14;183240;1233;45978;-80
2024/02/20 13:08:37;;;;;;;0.90;0.80;;;;;;;8.75;100.00;100782.33;183183;1237;45882;-81
2024/02/20 13:12:38;;;;;;;0.70;0.50;;;;;;;8.58;100.00;100767.17;182190;1239;59341;-81
2024/02/20 13:16:44;;;;;;;1.80;0.80;;;;;;;8.51;100.00;100776.81;182647;1233;44506;-81
2024/02/20 13:20:48;;;;;;;;;;;;;;;8.51;100.00;100773.59;182643;1235;46067;-80
2024/02/20 13:24:50;;;;;;;1.60;1.50;;;;;;;8.56;100.00;100773.65;183075;1236;45797;-80
2024/02/20 13:28:51;;;;;;;3.90;2.00;;;;;;;8.63;100.00;100769.11;183748;1235;44307;-81
2024/02/20 13:32:53;;;;;;;2.80;2.60;;;;;;;8.70;100.00;100765.13;182051;1235;59275;-81
2024/02/20 13:36:59;;;;;;;4.30;3.90;;;;;;;8.71;100.00;100772.30;183150;1237;46100;-81
2024/02/20 13:41:01;;;;;;;6.30;4.70;;;;;;;8.73;100.00;100778.35;182765;1235;46050;-82
2024/02/20 13:45:02;;;;;;;3.70;2.80;;;;;;;8.86;100.00;100773.98;183692;1237;46045;-81
2024/02/20 13:49:18;;;;;;;3.10;2.10;;;;;;;8.83;100.00;100778.23;183182;1237;46310;-82
2024/02/20 13:53:20;;;;;;;2.40;1.80;;;;;;;8.98;100.00;100776.41;183134;1237;59788;-82
2024/02/20 13:57:22;;;;;;;4.10;3.00;;;;;;;9.14;100.00;100774.10;182683;1235;46164;-82
2024/02/20 14:01:24;;;;;;;1.10;0.90;;;;;;;9.20;100.00;100773.30;183440;1237;45961;-82
2024/02/20 14:05:25;;;;;;;1.20;0.90;;;;;;;9.11;100.00;100782.21;183072;1238;45861;-82
2024/02/20 14:09:28;;;;;;;1.10;0.60;;;;;;;9.03;100.00;100790.38;182352;1234;45810;-80
2024/02/20 14:13:30;;;;;;;1.60;0.70;;;;;;;8.93;100.00;100793.88;182990;1237;58042;-82
2024/02/20 14:17:32;;;;;;;1.00;0.70;;;;;;;8.91;100.00;100793.80;183126;1234;45974;-81
2024/02/20 14:21:35;;;;;;;2.60;1.20;;;;;;;8.93;100.00;100799.54;182945;1237;46088;-81
2024/02/20 14:25:42;;;;;;;1.50;0.70;;;;;;;8.89;100.00;100808.66;183594;1234;45121;-81
2024/02/20 14:29:43;;;;;;;1.80;0.80;;;;;;;8.88;100.00;100813.11;183468;1235;46100;-81
2024/02/20 14:33:45;;;;;;;1.90;0.90;;;;;;;8.83;100.00;100816.42;184061;1234;58098;-81
2024/02/20 14:37:49;;;;;;;2.60;1.10;;;;;;;8.77;100.00;100821.27;184346;1234;43870;-82
2024/02/20 14:41:51;;;;;;;1.80;0.90;;;;;;;8.74;100.00;100823.06;184373;1235;44690;-81
2024/02/20 14:45:55;;;;;;;3.20;0.70;;;;;;;8.71;100.00;100821.65;182403;1235;46804;-82
2024/02/20 14:49:57;;;;;;;4.20;0.80;;;;;;;8.63;100.00;100833.65;182969;1235;45968;-81
2024/02/20 14:54:00;;;;;;;4.10;2.30;;;;;;;8.54;100.00;100844.86;184142;1235;59607;-81
2024/02/20 14:58:03;;;;;;;5.60;4.30;;;;;;;8.41;100.00;100842.08;183324;1234;45978;-82
2024/02/20 15:02:07;;;;;;;20.40;10.80;;;;;;;8.31;100.00;100844.84;182962;1235;46007;-82
2024/02/20 15:06:12;;;;;;;18.20;9.40;;;;;;;8.20;100.00;100840.06;182512;1235;45938;-81
2024/02/20 15:10:14;;;;;;;7.60;4.80;;;;;;;8.14;100.00;100838.27;182740;1234;46031;-81
2024/02/20 15:14:23;;;;;;;4.60;2.80;;;;;;;8.12;100.00;100847.79;184022;1234;59670;-80
2024/02/20 15:18:28;;;;;;;8.40;3.00;;;;;;;8.10;100.00;100849.16;183059;1237;46010;-81
2024/02/20 15:22:31;;;;;;;5.10;1.90;;;;;;;8.12;100.00;100856.23;184829;1235;45741;-81
2024/02/20 15:26:33;;;;;;;3.80;2.70;;;;;;;8.15;100.00;100855.03;182323;1234;46079;-80
2024/02/20 15:30:34;;;;;;;3.30;2.00;;;;;;;8.20;100.00;100855.82;183421;1235;46018;-81
2024/02/20 15:39:33;;;;;;;17.10;3.10;;;;;;;8.19;100.00;100859.23;183221;1234;46014;-86
2024/02/20 15:43:35;;;;;;;5.80;2.40;;;;;;;8.22;100.00;100865.17;183147;1238;45891;-86
2024/02/20 15:47:37;;;;;;;7.20;2.70;;;;;;;8.28;100.00;100874.57;182770;1235;46081;-85
2024/02/20 15:51:43;;;;;;;10.90;3.90;;;;;;;8.25;100.00;100877.20;183568;1238;44125;-84
2024/02/20 15:55:45;;;;;;;14.80;4.30;;;;;;;8.23;100.00;100877.86;183007;1235;57987;-84
2024/02/20 15:59:49;;;;;;;9.70;3.80;;;;;;;8.16;100.00;100883.75;183021;1235;46315;-84
2024/02/20 16:03:52;;;;;;;5.60;2.50;;;;;;;8.14;100.00;100883.72;182747;1234;45993;-86
2024/02/20 16:07:58;;;;;;;8.30;2.70;;;;;;;8.09;100.00;100879.24;182605;1235;46003;-85
2024/02/20 16:12:00;;;;;;;9.70;3.30;;;;;;;8.13;100.00;100896.31;183135;1235;46091;-85
2024/02/20 16:16:02;;;;;;;15.40;4.50;;;;;;;8.09;100.00;100905.89;182845;1235;57462;-84
2024/02/20 16:20:05;;;;;;;10.30;5.10;;;;;;;8.07;100.00;100912.75;182864;1236;46028;-83
2024/02/20 16:24:07;;;;;;;17.30;6.00;;;;;;;8.05;100.00;100918.52;183448;1235;46045;-85
2024/02/20 16:28:13;;;;;;;10.20;6.60;;;;;;;8.00;100.00;100928.90;182775;1234;46239;-84
2024/02/20 16:32:15;;;;;;;13.40;3.40;;;;;;;8.05;100.00;100932.64;183326;1238;46082;-85
2024/02/20 16:36:23;;;;;;;7.40;3.50;;;;;;;8.05;100.00;100941.48;182562;1235;59158;-84
2024/02/20 16:40:25;;;;;;;10.70;3.60;;;;;;;7.98;100.00;100950.03;182943;1235;46084;-83
2024/02/20 16:44:35;;;;;;;11.40;3.60;;;;;;;7.96;100.00;100960.23;182544;1235;46107;-83
2024/02/20 16:48:37;;;;;;;11.30;3.50;;;;;;;7.95;100.00;100959.95;182949;1236;45946;-83
2024/02/20 16:52:42;;;;;;;12.60;4.70;;;;;;;7.87;100.00;100962.04;182906;1235;46076;-84
2024/02/20 16:56:44;;;;;;;20.20;4.70;;;;;;;7.79;100.00;100972.48;182963;1235;59387;-84
2024/02/20 17:00:46;;;;;;;8.70;3.90;;;;;;;7.74;100.00;100977.21;183477;1238;46184;-84
2024/02/20 17:04:48;;;;;;;4.70;3.00;;;;;;;7.67;100.00;100976.71;183360;1237;46082;-81
2024/02/20 17:08:51;;;;;;;16.70;8.10;;;;;;;7.60;100.00;100974.02;183634;1233;44168;-82
2024/02/20 17:12:53;;;;;;;89.20;50.60;;;;;;;7.50;100.00;100979.52;183060;1233;46055;-83
2024/02/20 17:16:54;;;;;;;22.00;10.50;;;;;;;7.46;100.00;100978.14;183131;1234;57864;-82
2024/02/20 17:20:56;;;;;;;18.30;8.50;;;;;;;7.41;100.00;100974.35;184413;1233;44102;-79
2024/02/20 17:24:59;;;;;;;15.10;7.20;;;;;;;7.08;100.00;100978.69;183198;1234;46203;-82
2024/02/20 17:29:00;;;;;;;15.10;6.40;;;;;;;6.97;100.00;100971.16;182591;1237;46157;-81
2024/02/20 17:33:02;;;;;;;16.10;6.00;;;;;;;7.01;100.00;100972.89;183588;1234;45353;-82
2024/02/20 17:37:05;;;;;;;16.70;6.50;;;;;;;7.10;100.00;100976.81;182901;1233;59534;-82
2024/02/20 17:41:06;;;;;;;12.60;7.80;;;;;;;7.18;100.00;100980.40;182921;1234;44206;-82
2024/02/20 17:45:09;;;;;;;12.40;5.50;;;;;;;7.28;100.00;100983.55;184013;1236;46150;-81
2024/02/20 17:49:11;;;;;;;13.70;4.70;;;;;;;7.34;100.00;100980.04;182824;1234;45961;-83
2024/02/20 17:53:13;;;;;;;9.60;4.30;;;;;;;7.42;100.00;100978.17;183276;1233;45973;-81
2024/02/20 17:57:16;;;;;;;15.40;5.00;;;;;;;7.49;100.00;100974.58;183144;1233;57961;-82
2024/02/20 18:01:18;;;;;;;9.50;4.00;;;;;;;7.58;100.00;100982.05;183368;1234;46025;-81
2024/02/20 18:05:23;;;;;;;20.00;5.70;;;;;;;7.64;100.00;100978.16;184156;1234;45961;-82
2024/02/20 18:09:25;;;;;;;13.10;5.70;;;;;;;7.67;100.00;100977.48;183823;1233;46111;-81
2024/02/20 18:13:27;;;;;;;13.10;5.50;;;;;;;7.72;100.00;100979.45;183682;1234;44158;-80
2024/02/20 18:17:30;;;;;;;17.30;6.30;;;;;;;7.75;100.00;100973.45;183721;1237;59187;-81
2024/02/20 18:21:33;;;;;;;14.50;7.10;;;;;;;7.79;100.00;100978.00;182393;1237;46059;-81
2024/02/20 18:25:35;;;;;;;18.20;6.20;;;;;;;7.77;100.00;100978.98;182540;1238;46093;-80
2024/02/20 18:29:38;;;;;;;11.40;5.70;;;;;;;7.74;100.00;100979.37;183184;1234;46168;-82
2024/02/20 18:33:39;;;;;;;20.50;7.20;;;;;;;7.77;100.00;100979.70;182547;1237;46056;-81